createdAt,value
2017-07-08T00:00:43.522Z,1010.21
2017-07-08T00:01:43.503Z,1010.17
2017-07-08T00:02:43.478Z,1010.17
2017-07-08T00:03:43.457Z,1010.15
2017-07-08T00:04:43.446Z,1010.17
2017-07-08T00:05:43.420Z,1010.14
2017-07-08T00:06:43.403Z,1010.16
2017-07-08T00:07:43.384Z,1010.18
2017-07-08T00:08:43.365Z,1010.2
2017-07-08T00:09:43.344Z,1010.16
2017-07-08T00:10:43.325Z,1010.16
2017-07-08T00:11:43.305Z,1010.23
2017-07-08T00:12:43.285Z,1010.21
2017-07-08T00:13:43.266Z,1010.22
2017-07-08T00:14:43.248Z,1010.25
2017-07-08T00:15:43.230Z,1010.22
2017-07-08T00:16:43.209Z,1010.21
2017-07-08T00:17:43.190Z,1010.21
2017-07-08T00:18:43.173Z,1010.18
2017-07-08T00:19:43.151Z,1010.17
2017-07-08T00:20:43.132Z,1010.23
2017-07-08T00:21:43.114Z,1010.22
2017-07-08T00:22:43.094Z,1010.23
2017-07-08T00:23:43.078Z,1010.19
2017-07-08T00:24:43.060Z,1010.19
2017-07-08T00:25:43.042Z,1010.18
2017-07-08T00:26:43.030Z,1010.25
2017-07-08T00:27:42.999Z,1010.19
2017-07-08T00:28:42.977Z,1010.22
2017-07-08T00:29:42.959Z,1010.15
2017-07-08T00:30:42.939Z,1010.15
2017-07-08T00:31:42.921Z,1010.13
2017-07-08T00:32:42.902Z,1010.12
2017-07-08T00:33:42.882Z,1010.13
2017-07-08T00:34:42.864Z,1010.13
2017-07-08T00:35:42.843Z,1010.11
2017-07-08T00:36:42.826Z,1010.12
2017-07-08T00:37:42.804Z,1010.1
2017-07-08T00:38:42.785Z,1010.15
2017-07-08T00:39:42.767Z,1010.12
2017-07-08T00:40:42.748Z,1010.1
2017-07-08T00:41:42.730Z,1010.08
2017-07-08T00:42:42.711Z,1010.12
2017-07-08T00:43:42.690Z,1010.13
2017-07-08T00:44:42.672Z,1010.11
2017-07-08T00:45:42.650Z,1010.09
2017-07-08T00:46:42.632Z,1010.13
2017-07-08T00:47:42.613Z,1010.14
2017-07-08T00:48:42.594Z,1010.15
2017-07-08T00:49:42.580Z,1010.15
2017-07-08T00:50:42.553Z,1010.13
2017-07-08T00:51:42.546Z,1010.12
2017-07-08T00:52:42.516Z,1010.15
2017-07-08T00:53:42.498Z,1010.17
2017-07-08T00:54:42.476Z,1010.18
2017-07-08T00:55:42.510Z,1010.22
2017-07-08T00:56:42.439Z,1010.19
2017-07-08T00:57:42.423Z,1010.21
2017-07-08T00:58:42.400Z,1010.19
2017-07-08T00:59:42.380Z,1010.2
2017-07-08T01:00:42.366Z,1010.16
2017-07-08T01:01:42.342Z,1010.2
2017-07-08T01:02:42.322Z,1010.16
2017-07-08T01:03:42.307Z,1010.17
2017-07-08T01:04:42.288Z,1010.17
2017-07-08T01:05:42.265Z,1010.19
2017-07-08T01:06:42.246Z,1010.16
2017-07-08T01:07:42.227Z,1010.18
2017-07-08T01:08:42.208Z,1010.1
2017-07-08T01:09:42.188Z,1010.13
2017-07-08T01:10:42.167Z,1010.14
2017-07-08T01:11:42.153Z,1010.13
2017-07-08T01:12:42.129Z,1010.1
2017-07-08T01:13:42.113Z,1010.13
2017-07-08T01:14:42.090Z,1010.1
2017-07-08T01:15:42.071Z,1010.09
2017-07-08T01:16:42.051Z,1010.11
2017-07-08T01:17:42.033Z,1010.1
2017-07-08T01:18:42.013Z,1010.09
2017-07-08T01:19:41.995Z,1010.1
2017-07-08T01:20:41.973Z,1010.07
2017-07-08T01:21:41.952Z,1010.04
2017-07-08T01:22:41.935Z,1010.02
2017-07-08T01:23:41.915Z,1010.01
2017-07-08T01:24:41.896Z,1010.02
2017-07-08T01:25:41.877Z,1009.98
2017-07-08T01:26:41.858Z,1010.06
2017-07-08T01:27:41.842Z,1010.1
2017-07-08T01:28:41.818Z,1010.09
2017-07-08T01:29:41.798Z,1010.1
2017-07-08T01:30:41.778Z,1010.08
2017-07-08T01:31:41.759Z,1010.04
2017-07-08T01:32:41.742Z,1010.08
2017-07-08T01:33:41.722Z,1010.14
2017-07-08T01:34:41.700Z,1010.07
2017-07-08T01:35:41.731Z,1010.12
2017-07-08T01:36:41.663Z,1010.09
2017-07-08T01:37:41.649Z,1010.09
2017-07-08T01:38:41.623Z,1010.09
2017-07-08T01:39:41.604Z,1010.12
2017-07-08T01:40:41.834Z,1010.13
2017-07-08T01:41:41.565Z,1010.1
2017-07-08T01:42:41.546Z,1010.1
2017-07-08T01:43:41.526Z,1010.11
2017-07-08T01:44:41.507Z,1010.09
2017-07-08T01:45:41.486Z,1010.09
2017-07-08T01:46:41.467Z,1010.07
2017-07-08T01:47:41.447Z,1010.08
2017-07-08T01:48:41.431Z,1010.1
2017-07-08T01:49:41.457Z,1010.13
2017-07-08T01:50:41.390Z,1010.09
2017-07-08T01:51:41.369Z,1010.07
2017-07-08T01:52:41.350Z,1010.13
2017-07-08T01:53:41.330Z,1010.07
2017-07-08T01:54:41.310Z,1010.09
2017-07-08T01:55:41.294Z,1010.07
2017-07-08T01:56:41.272Z,1010.08
2017-07-08T01:57:41.255Z,1010.05
2017-07-08T01:58:41.232Z,1010.12
2017-07-08T01:59:41.214Z,1010.17
2017-07-08T02:00:41.194Z,1010.21
2017-07-08T02:01:41.175Z,1010.22
2017-07-08T02:02:41.153Z,1010.17
2017-07-08T02:03:41.136Z,1010.19
2017-07-08T02:04:41.115Z,1010.16
2017-07-08T02:05:41.146Z,1010.14
2017-07-08T02:06:41.078Z,1010.13
2017-07-08T02:07:41.054Z,1010.11
2017-07-08T02:08:41.036Z,1010.13
2017-07-08T02:09:41.017Z,1010.08
2017-07-08T02:10:40.999Z,1010.09
2017-07-08T02:11:40.979Z,1010.08
2017-07-08T02:12:40.957Z,1010.04
2017-07-08T02:13:40.938Z,1010.06
2017-07-08T02:14:40.921Z,1010.01
2017-07-08T02:15:40.902Z,1009.99
2017-07-08T02:16:40.880Z,1010.03
2017-07-08T02:17:40.864Z,1009.99
2017-07-08T02:18:40.842Z,1010.04
2017-07-08T02:19:40.823Z,1010.04
2017-07-08T02:20:40.806Z,1010
2017-07-08T02:21:40.784Z,1010.04
2017-07-08T02:22:40.764Z,1010.02
2017-07-08T02:23:40.746Z,1010
2017-07-08T02:24:40.725Z,1010.08
2017-07-08T02:25:40.711Z,1010.07
2017-07-08T02:26:40.688Z,1010.11
2017-07-08T02:27:40.669Z,1010.14
2017-07-08T02:28:40.646Z,1010.1
2017-07-08T02:29:40.629Z,1010.14
2017-07-08T02:30:40.606Z,1010.17
2017-07-08T02:31:40.586Z,1010.17
2017-07-08T02:32:40.568Z,1010.15
2017-07-08T02:33:40.550Z,1010.21
2017-07-08T02:34:40.529Z,1010.19
2017-07-08T02:35:40.514Z,1010.15
2017-07-08T02:36:40.493Z,1010.2
2017-07-08T02:37:40.469Z,1010.15
2017-07-08T02:38:40.451Z,1010.18
2017-07-08T02:39:40.432Z,1010.16
2017-07-08T02:40:40.410Z,1010.17
2017-07-08T02:41:40.390Z,1010.18
2017-07-08T02:42:40.375Z,1010.12
2017-07-08T02:43:40.353Z,1010.13
2017-07-08T02:44:40.332Z,1010.14
2017-07-08T02:45:40.315Z,1010.08
2017-07-08T02:46:40.295Z,1010.12
2017-07-08T02:47:40.273Z,1010.12
2017-07-08T02:48:40.253Z,1010.12
2017-07-08T02:49:40.236Z,1010.15
2017-07-08T02:50:40.214Z,1010.15
2017-07-08T02:51:40.193Z,1010.13
2017-07-08T02:52:40.176Z,1010.16
2017-07-08T02:53:40.158Z,1010.14
2017-07-08T02:54:40.134Z,1010.13
2017-07-08T02:55:40.115Z,1010.13
2017-07-08T02:56:40.095Z,1010.1
2017-07-08T02:57:40.075Z,1010.07
2017-07-08T02:58:40.059Z,1010.08
2017-07-08T02:59:40.036Z,1010.01
2017-07-08T03:00:40.016Z,1010.02
2017-07-08T03:01:39.997Z,1009.97
2017-07-08T03:02:39.975Z,1009.99
2017-07-08T03:03:39.957Z,1009.96
2017-07-08T03:04:39.938Z,1009.98
2017-07-08T03:05:39.916Z,1009.98
2017-07-08T03:06:39.899Z,1009.95
2017-07-08T03:07:39.877Z,1009.94
2017-07-08T03:08:39.858Z,1009.98
2017-07-08T03:09:39.837Z,1009.95
2017-07-08T03:10:39.818Z,1010
2017-07-08T03:11:39.801Z,1010.03
2017-07-08T03:12:39.778Z,1010.05
2017-07-08T03:13:39.762Z,1010.02
2017-07-08T03:14:39.739Z,1010.04
2017-07-08T03:15:39.718Z,1010.05
2017-07-08T03:16:39.702Z,1010.04
2017-07-08T03:17:39.685Z,1010.03
2017-07-08T03:18:39.658Z,1010.05
2017-07-08T03:19:39.638Z,1010.03
2017-07-08T03:20:39.620Z,1010.06
2017-07-08T03:21:39.855Z,1010.04
2017-07-08T03:22:39.584Z,1010.08
2017-07-08T03:23:39.559Z,1010.07
2017-07-08T03:24:39.539Z,1010.07
2017-07-08T03:25:39.520Z,1010.09
2017-07-08T03:26:39.500Z,1010.08
2017-07-08T03:27:39.482Z,1010.15
2017-07-08T03:28:39.458Z,1010.12
2017-07-08T03:29:39.443Z,1010.15
2017-07-08T03:30:39.423Z,1010.18
2017-07-08T03:31:39.400Z,1010.14
2017-07-08T03:32:39.382Z,1010.15
2017-07-08T03:33:39.362Z,1010.15
2017-07-08T03:34:39.345Z,1010.16
2017-07-08T03:35:39.320Z,1010.19
2017-07-08T03:36:39.320Z,1010.2
2017-07-08T03:37:39.283Z,1010.24
2017-07-08T03:38:39.264Z,1010.23
2017-07-08T03:39:39.243Z,1010.26
2017-07-08T03:40:39.223Z,1010.28
2017-07-08T03:41:39.204Z,1010.33
2017-07-08T03:42:39.185Z,1010.28
2017-07-08T03:43:39.164Z,1010.35
2017-07-08T03:44:39.143Z,1010.28
2017-07-08T03:45:39.119Z,1010.3
2017-07-08T03:46:39.102Z,1010.31
2017-07-08T03:47:39.081Z,1010.34
2017-07-08T03:48:39.063Z,1010.35
2017-07-08T03:49:39.044Z,1010.31
2017-07-08T03:50:39.023Z,1010.36
2017-07-08T03:51:39.018Z,1010.3
2017-07-08T03:52:38.984Z,1010.32
2017-07-08T03:53:38.967Z,1010.33
2017-07-08T03:54:38.943Z,1010.34
2017-07-08T03:55:38.935Z,1010.33
2017-07-08T03:56:38.906Z,1010.35
2017-07-08T03:57:38.886Z,1010.31
2017-07-08T03:58:38.869Z,1010.31
2017-07-08T03:59:38.844Z,1010.34
2017-07-08T04:00:38.826Z,1010.31
2017-07-08T04:01:38.805Z,1010.32
2017-07-08T04:02:38.786Z,1010.32
2017-07-08T04:03:38.768Z,1010.32
2017-07-08T04:04:38.747Z,1010.33
2017-07-08T04:05:38.728Z,1010.34
2017-07-08T04:06:38.708Z,1010.36
2017-07-08T04:07:38.686Z,1010.32
2017-07-08T04:08:38.720Z,1010.3
2017-07-08T04:09:38.649Z,1010.37
2017-07-08T04:10:38.627Z,1010.37
2017-07-08T04:11:38.605Z,1010.36
2017-07-08T04:12:38.587Z,1010.37
2017-07-08T04:13:38.566Z,1010.4
2017-07-08T04:14:38.548Z,1010.37
2017-07-08T04:15:38.528Z,1010.36
2017-07-08T04:16:38.508Z,1010.38
2017-07-08T04:17:38.488Z,1010.41
2017-07-08T04:18:38.471Z,1010.43
2017-07-08T04:19:38.448Z,1010.45
2017-07-08T04:20:38.429Z,1010.46
2017-07-08T04:21:38.409Z,1010.47
2017-07-08T04:22:38.394Z,1010.43
2017-07-08T04:23:38.369Z,1010.45
2017-07-08T04:24:38.352Z,1010.43
2017-07-08T04:25:38.330Z,1010.46
2017-07-08T04:26:38.309Z,1010.49
2017-07-08T04:27:38.290Z,1010.43
2017-07-08T04:28:38.271Z,1010.45
2017-07-08T04:29:38.251Z,1010.5
2017-07-08T04:30:38.231Z,1010.48
2017-07-08T04:31:38.209Z,1010.51
2017-07-08T04:32:38.191Z,1010.51
2017-07-08T04:33:38.172Z,1010.55
2017-07-08T04:34:38.153Z,1010.53
2017-07-08T04:35:38.134Z,1010.55
2017-07-08T04:36:38.117Z,1010.52
2017-07-08T04:37:38.096Z,1010.56
2017-07-08T04:38:38.077Z,1010.59
2017-07-08T04:39:38.059Z,1010.63
2017-07-08T04:40:38.036Z,1010.64
2017-07-08T04:41:38.018Z,1010.66
2017-07-08T04:42:38.001Z,1010.62
2017-07-08T04:43:37.981Z,1010.6
2017-07-08T04:44:37.966Z,1010.58
2017-07-08T04:45:37.945Z,1010.59
2017-07-08T04:46:37.928Z,1010.6
2017-07-08T04:47:37.908Z,1010.63
2017-07-08T04:48:37.888Z,1010.65
2017-07-08T04:49:37.871Z,1010.67
2017-07-08T04:50:37.855Z,1010.68
2017-07-08T04:51:37.833Z,1010.65
2017-07-08T04:52:37.812Z,1010.66
2017-07-08T04:53:37.794Z,1010.61
2017-07-08T04:54:37.774Z,1010.58
2017-07-08T04:55:37.756Z,1010.57
2017-07-08T04:56:37.738Z,1010.53
2017-07-08T04:57:37.723Z,1010.55
2017-07-08T04:58:37.700Z,1010.51
2017-07-08T04:59:37.682Z,1010.53
2017-07-08T05:00:37.660Z,1010.51
2017-07-08T05:01:37.644Z,1010.52
2017-07-08T05:02:37.625Z,1010.52
2017-07-08T05:03:37.605Z,1010.54
2017-07-08T05:04:37.585Z,1010.54
2017-07-08T05:05:37.569Z,1010.5
2017-07-08T05:06:37.548Z,1010.52
2017-07-08T05:07:37.530Z,1010.56
2017-07-08T05:08:37.511Z,1010.55
2017-07-08T05:09:37.494Z,1010.6
2017-07-08T05:10:37.477Z,1010.56
2017-07-08T05:11:37.457Z,1010.56
2017-07-08T05:12:37.437Z,1010.52
2017-07-08T05:13:37.422Z,1010.51
2017-07-08T05:14:37.402Z,1010.48
2017-07-08T05:15:37.384Z,1010.48
2017-07-08T05:16:37.367Z,1010.46
2017-07-08T05:17:37.348Z,1010.4
2017-07-08T05:18:37.330Z,1010.41
2017-07-08T05:19:37.314Z,1010.35
2017-07-08T05:20:37.295Z,1010.38
2017-07-08T05:21:37.279Z,1010.36
2017-07-08T05:22:37.261Z,1010.37
2017-07-08T05:23:37.243Z,1010.4
2017-07-08T05:24:37.226Z,1010.34
2017-07-08T05:25:37.210Z,1010.34
2017-07-08T05:26:37.193Z,1010.32
2017-07-08T05:27:37.175Z,1010.32
2017-07-08T05:28:37.159Z,1010.37
2017-07-08T05:29:37.141Z,1010.36
2017-07-08T05:30:37.124Z,1010.4
2017-07-08T05:31:37.105Z,1010.37
2017-07-08T05:32:37.088Z,1010.4
2017-07-08T05:33:37.077Z,1010.41
2017-07-08T05:34:37.053Z,1010.41
2017-07-08T05:35:37.034Z,1010.42
2017-07-08T05:36:37.017Z,1010.4
2017-07-08T05:37:37.000Z,1010.37
2017-07-08T05:38:36.982Z,1010.39
2017-07-08T05:39:36.966Z,1010.37
2017-07-08T05:40:36.947Z,1010.34
2017-07-08T05:41:36.927Z,1010.3
2017-07-08T05:42:36.909Z,1010.31
2017-07-08T05:43:36.890Z,1010.36
2017-07-08T05:44:36.873Z,1010.3
2017-07-08T05:45:36.860Z,1010.33
2017-07-08T05:46:36.837Z,1010.3
2017-07-08T05:47:36.821Z,1010.29
2017-07-08T05:48:36.800Z,1010.31
2017-07-08T05:49:36.783Z,1010.29
2017-07-08T05:50:36.772Z,1010.29
2017-07-08T05:51:36.747Z,1010.25
2017-07-08T05:52:36.778Z,1010.27
2017-07-08T05:53:36.709Z,1010.31
2017-07-08T05:54:36.690Z,1010.26
2017-07-08T05:55:36.673Z,1010.25
2017-07-08T05:56:36.659Z,1010.28
2017-07-08T05:57:36.635Z,1010.25
2017-07-08T05:58:36.618Z,1010.21
2017-07-08T05:59:36.601Z,1010.21
2017-07-08T06:00:36.581Z,1010.16
2017-07-08T06:01:36.561Z,1010.17
2017-07-08T06:02:36.545Z,1010.14
2017-07-08T06:03:36.525Z,1010.14
2017-07-08T06:04:36.509Z,1010.17
2017-07-08T06:05:36.489Z,1010.16
2017-07-08T06:06:36.471Z,1010.16
2017-07-08T06:07:36.452Z,1010.16
2017-07-08T06:08:36.436Z,1010.14
2017-07-08T06:09:36.420Z,1010.17
2017-07-08T06:10:36.397Z,1010.2
2017-07-08T06:11:36.380Z,1010.25
2017-07-08T06:12:36.361Z,1010.27
2017-07-08T06:13:36.341Z,1010.22
2017-07-08T06:14:36.324Z,1010.28
2017-07-08T06:15:36.304Z,1010.25
2017-07-08T06:16:36.286Z,1010.3
2017-07-08T06:17:36.268Z,1010.34
2017-07-08T06:18:36.249Z,1010.3
2017-07-08T06:19:36.231Z,1010.3
2017-07-08T06:20:36.212Z,1010.32
2017-07-08T06:21:36.196Z,1010.24
2017-07-08T06:22:36.174Z,1010.29
2017-07-08T06:23:36.157Z,1010.23
2017-07-08T06:24:36.136Z,1010.24
2017-07-08T06:25:36.123Z,1010.27
2017-07-08T06:26:36.101Z,1010.25
2017-07-08T06:27:36.082Z,1010.3
2017-07-08T06:28:36.065Z,1010.29
2017-07-08T06:29:36.047Z,1010.28
2017-07-08T06:30:36.025Z,1010.34
2017-07-08T06:31:36.014Z,1010.3
2017-07-08T06:32:35.995Z,1010.27
2017-07-08T06:33:35.973Z,1010.26
2017-07-08T06:34:35.954Z,1010.26
2017-07-08T06:35:35.936Z,1010.27
2017-07-08T06:36:35.920Z,1010.33
2017-07-08T06:37:35.905Z,1010.35
2017-07-08T06:38:35.881Z,1010.42
2017-07-08T06:39:35.865Z,1010.46
2017-07-08T06:40:35.844Z,1010.49
2017-07-08T06:41:35.829Z,1010.5
2017-07-08T06:42:35.810Z,1010.54
2017-07-08T06:43:35.795Z,1010.53
2017-07-08T06:44:35.772Z,1010.59
2017-07-08T06:45:35.751Z,1010.61
2017-07-08T06:46:35.736Z,1010.61
2017-07-08T06:47:35.718Z,1010.6
2017-07-08T06:48:35.701Z,1010.61
2017-07-08T06:49:35.681Z,1010.63
2017-07-08T06:50:35.671Z,1010.64
2017-07-08T06:51:35.647Z,1010.63
2017-07-08T06:52:35.627Z,1010.72
2017-07-08T06:53:35.611Z,1010.72
2017-07-08T06:54:35.598Z,1010.73
2017-07-08T06:55:35.577Z,1010.78
2017-07-08T06:56:35.557Z,1010.82
2017-07-08T06:57:35.541Z,1010.78
2017-07-08T06:58:35.525Z,1010.78
2017-07-08T06:59:35.505Z,1010.78
2017-07-08T07:00:35.490Z,1010.79
2017-07-08T07:01:35.475Z,1010.76
2017-07-08T07:02:35.456Z,1010.75
2017-07-08T07:03:35.437Z,1010.76
2017-07-08T07:04:35.419Z,1010.71
2017-07-08T07:05:35.402Z,1010.7
2017-07-08T07:06:35.387Z,1010.72
2017-07-08T07:07:35.369Z,1010.76
2017-07-08T07:08:35.351Z,1010.73
2017-07-08T07:09:35.333Z,1010.79
2017-07-08T07:10:35.319Z,1010.83
2017-07-08T07:11:35.303Z,1010.87
2017-07-08T07:12:35.281Z,1010.94
2017-07-08T07:13:35.261Z,1010.93
2017-07-08T07:14:35.249Z,1010.94
2017-07-08T07:15:35.232Z,1010.94
2017-07-08T07:16:35.214Z,1010.88
2017-07-08T07:17:35.209Z,1010.89
2017-07-08T07:18:35.182Z,1010.84
2017-07-08T07:19:35.165Z,1010.81
2017-07-08T07:20:35.150Z,1010.78
2017-07-08T07:21:35.139Z,1010.74
2017-07-08T07:22:35.119Z,1010.75
2017-07-08T07:23:35.104Z,1010.75
2017-07-08T07:24:35.085Z,1010.78
2017-07-08T07:25:35.073Z,1010.78
2017-07-08T07:26:35.052Z,1010.86
2017-07-08T07:27:35.041Z,1010.86
2017-07-08T07:28:35.021Z,1010.87
2017-07-08T07:29:35.000Z,1010.86
2017-07-08T07:30:34.988Z,1010.87
2017-07-08T07:31:34.974Z,1010.82
2017-07-08T07:32:34.954Z,1010.88
2017-07-08T07:33:34.939Z,1010.9
2017-07-08T07:34:34.922Z,1010.9
2017-07-08T07:35:34.907Z,1010.87
2017-07-08T07:36:34.890Z,1010.81
2017-07-08T07:37:34.879Z,1010.86
2017-07-08T07:38:34.862Z,1010.81
2017-07-08T07:39:34.842Z,1010.8
2017-07-08T07:40:34.827Z,1010.78
2017-07-08T07:41:34.807Z,1010.76
2017-07-08T07:42:34.794Z,1010.71
2017-07-08T07:43:34.774Z,1010.72
2017-07-08T07:44:34.758Z,1010.72
2017-07-08T07:45:34.743Z,1010.8
2017-07-08T07:46:34.733Z,1010.77
2017-07-08T07:47:34.713Z,1010.8
2017-07-08T07:48:34.696Z,1010.78
2017-07-08T07:49:34.678Z,1010.81
2017-07-08T07:50:34.664Z,1010.87
2017-07-08T07:51:34.645Z,1010.78
2017-07-08T07:52:34.628Z,1010.79
2017-07-08T07:53:34.613Z,1010.82
2017-07-08T07:54:34.595Z,1010.82
2017-07-08T07:55:34.581Z,1010.83
2017-07-08T07:56:34.614Z,1010.84
2017-07-08T07:57:34.548Z,1010.84
2017-07-08T07:58:34.536Z,1010.9
2017-07-08T07:59:34.517Z,1010.9
2017-07-08T08:00:34.501Z,1010.87
2017-07-08T08:01:34.483Z,1010.85
2017-07-08T08:02:34.466Z,1010.85
2017-07-08T08:03:34.448Z,1010.84
2017-07-08T08:04:34.438Z,1010.84
2017-07-08T08:05:34.418Z,1010.85
2017-07-08T08:06:34.407Z,1010.81
2017-07-08T08:07:34.386Z,1010.82
2017-07-08T08:08:34.372Z,1010.83
2017-07-08T08:09:34.360Z,1010.84
2017-07-08T08:10:34.342Z,1010.84
2017-07-08T08:11:34.324Z,1010.82
2017-07-08T08:12:34.313Z,1010.72
2017-07-08T08:13:34.296Z,1010.8
2017-07-08T08:14:34.290Z,1010.78
2017-07-08T08:15:34.320Z,1010.84
2017-07-08T08:16:34.253Z,1010.86
2017-07-08T08:17:34.239Z,1010.88
2017-07-08T08:18:34.237Z,1010.88
2017-07-08T08:19:34.211Z,1010.86
2017-07-08T08:20:34.194Z,1010.89
2017-07-08T08:21:34.179Z,1010.83
2017-07-08T08:22:34.163Z,1010.82
2017-07-08T08:23:34.150Z,1010.79
2017-07-08T08:24:34.134Z,1010.78
2017-07-08T08:25:34.118Z,1010.79
2017-07-08T08:26:34.105Z,1010.8
2017-07-08T08:27:34.089Z,1010.78
2017-07-08T08:28:34.076Z,1010.81
2017-07-08T08:29:34.063Z,1010.82
2017-07-08T08:30:34.050Z,1010.82
2017-07-08T08:31:34.040Z,1010.91
2017-07-08T08:32:34.024Z,1010.91
2017-07-08T08:33:34.022Z,1010.91
2017-07-08T08:34:34.003Z,1010.97
2017-07-08T08:35:33.990Z,1010.97
2017-07-08T08:36:33.978Z,1010.88
2017-07-08T08:37:33.969Z,1010.9
2017-07-08T08:38:33.958Z,1010.84
2017-07-08T08:39:33.952Z,1010.81
2017-07-08T08:40:33.935Z,1010.86
2017-07-08T08:41:33.930Z,1010.94
2017-07-08T08:42:33.916Z,1010.93
2017-07-08T08:43:33.907Z,1010.96
2017-07-08T08:44:33.890Z,1010.92
2017-07-08T08:45:33.877Z,1010.93
2017-07-08T08:46:33.868Z,1010.94
2017-07-08T08:47:34.107Z,1010.92
2017-07-08T08:48:33.846Z,1010.88
2017-07-08T08:49:33.833Z,1010.88
2017-07-08T08:50:33.821Z,1010.94
2017-07-08T08:51:33.807Z,1010.89
2017-07-08T08:52:33.800Z,1010.8
2017-07-08T08:53:33.783Z,1010.8
2017-07-08T08:54:33.774Z,1010.84
2017-07-08T08:55:33.761Z,1010.85
2017-07-08T08:56:33.751Z,1010.87
2017-07-08T08:57:33.734Z,1010.88
2017-07-08T08:58:33.719Z,1010.9
2017-07-08T08:59:33.710Z,1010.92
2017-07-08T09:00:33.693Z,1010.93
2017-07-08T09:01:33.684Z,1010.86
2017-07-08T09:02:33.666Z,1010.86
2017-07-08T09:03:33.656Z,1010.92
2017-07-08T09:04:33.643Z,1010.92
2017-07-08T09:05:33.643Z,1010.95
2017-07-08T09:06:33.613Z,1010.96
2017-07-08T09:07:33.597Z,1010.92
2017-07-08T09:08:33.583Z,1010.97
2017-07-08T09:09:33.572Z,1010.95
2017-07-08T09:10:33.564Z,1010.92
2017-07-08T09:11:33.546Z,1010.95
2017-07-08T09:12:33.534Z,1010.97
2017-07-08T09:13:33.521Z,1010.95
2017-07-08T09:14:33.510Z,1010.93
2017-07-08T09:15:33.495Z,1010.95
2017-07-08T09:16:33.481Z,1010.93
2017-07-08T09:17:33.474Z,1010.9
2017-07-08T09:18:33.454Z,1010.93
2017-07-08T09:19:33.441Z,1011.02
2017-07-08T09:20:33.430Z,1011
2017-07-08T09:21:33.467Z,1010.95
2017-07-08T09:22:33.404Z,1011.02
2017-07-08T09:23:33.391Z,1011.05
2017-07-08T09:24:33.379Z,1011
2017-07-08T09:25:33.368Z,1011.02
2017-07-08T09:26:33.353Z,1011
2017-07-08T09:27:33.340Z,1011
2017-07-08T09:28:33.328Z,1010.99
2017-07-08T09:29:33.316Z,1010.99
2017-07-08T09:30:33.357Z,1011
2017-07-08T09:31:33.289Z,1010.98
2017-07-08T09:32:33.281Z,1010.98
2017-07-08T09:33:33.266Z,1010.99
2017-07-08T09:34:33.254Z,1011.05
2017-07-08T09:35:33.242Z,1010.97
2017-07-08T09:36:33.230Z,1010.98
2017-07-08T09:37:33.214Z,1011.02
2017-07-08T09:38:33.251Z,1011.01
2017-07-08T09:39:33.189Z,1011.03
2017-07-08T09:40:33.177Z,1011.04
2017-07-08T09:41:33.163Z,1011.02
2017-07-08T09:42:33.152Z,1010.98
2017-07-08T09:43:33.139Z,1010.95
2017-07-08T09:44:33.129Z,1010.97
2017-07-08T09:45:33.111Z,1010.97
2017-07-08T09:46:33.102Z,1011.03
2017-07-08T09:47:33.088Z,1011
2017-07-08T09:48:33.073Z,1011.05
2017-07-08T09:49:33.068Z,1011.01
2017-07-08T09:50:33.050Z,1010.99
2017-07-08T09:51:33.036Z,1011.05
2017-07-08T09:52:33.023Z,1011.04
2017-07-08T09:53:33.009Z,1011.04
2017-07-08T09:54:33.063Z,1011.01
2017-07-08T09:55:32.983Z,1011.02
2017-07-08T09:56:32.972Z,1011.03
2017-07-08T09:57:32.959Z,1011.01
2017-07-08T09:58:32.945Z,1011
2017-07-08T09:59:32.932Z,1011
2017-07-08T10:00:32.921Z,1011.03
2017-07-08T10:01:32.907Z,1011.03
2017-07-08T10:02:32.896Z,1011.02
2017-07-08T10:03:32.881Z,1011.02
2017-07-08T10:04:32.869Z,1011.02
2017-07-08T10:05:32.856Z,1011.04
2017-07-08T10:06:32.843Z,1011.05
2017-07-08T10:07:32.885Z,1011.07
2017-07-08T10:08:32.818Z,1011.07
2017-07-08T10:09:32.808Z,1011.1
2017-07-08T10:10:32.791Z,1011.14
2017-07-08T10:11:32.783Z,1011.12
2017-07-08T10:12:32.770Z,1011.13
2017-07-08T10:13:32.757Z,1011.17
2017-07-08T10:14:32.744Z,1011.16
2017-07-08T10:15:32.731Z,1011.16
2017-07-08T10:16:32.719Z,1011.2
2017-07-08T10:17:32.706Z,1011.17
2017-07-08T10:18:32.693Z,1011.19
2017-07-08T10:19:32.684Z,1011.21
2017-07-08T10:20:32.668Z,1011.19
2017-07-08T10:21:32.654Z,1011.13
2017-07-08T10:22:32.643Z,1011.15
2017-07-08T10:23:32.633Z,1011.14
2017-07-08T10:24:32.618Z,1011.16
2017-07-08T10:25:32.608Z,1011.17
2017-07-08T10:26:32.594Z,1011.14
2017-07-08T10:27:32.581Z,1011.16
2017-07-08T10:28:32.567Z,1011.13
2017-07-08T10:29:32.556Z,1011.15
2017-07-08T10:30:32.545Z,1011.14
2017-07-08T10:31:32.530Z,1011.13
2017-07-08T10:32:32.519Z,1011.13
2017-07-08T10:33:32.506Z,1011.16
2017-07-08T10:34:32.492Z,1011.15
2017-07-08T10:35:32.479Z,1011.13
2017-07-08T10:36:32.473Z,1011.11
2017-07-08T10:37:32.453Z,1011.15
2017-07-08T10:38:32.443Z,1011.13
2017-07-08T10:39:32.431Z,1011.16
2017-07-08T10:40:32.422Z,1011.17
2017-07-08T10:41:32.408Z,1011.17
2017-07-08T10:42:32.394Z,1011.13
2017-07-08T10:43:32.381Z,1011.11
2017-07-08T10:44:32.420Z,1011.13
2017-07-08T10:45:32.359Z,1011.18
2017-07-08T10:46:32.345Z,1011.15
2017-07-08T10:47:32.334Z,1011.16
2017-07-08T10:48:32.321Z,1011.16
2017-07-08T10:49:32.309Z,1011.15
2017-07-08T10:50:32.296Z,1011.15
2017-07-08T10:51:32.285Z,1011.15
2017-07-08T10:52:32.273Z,1011.15
2017-07-08T10:53:32.261Z,1011.15
2017-07-08T10:54:32.284Z,1011.16
2017-07-08T10:55:32.237Z,1011.16
2017-07-08T10:56:32.226Z,1011.15
2017-07-08T10:57:32.213Z,1011.12
2017-07-08T10:58:32.204Z,1011.13
2017-07-08T10:59:32.188Z,1011.11
2017-07-08T11:00:32.177Z,1011.13
2017-07-08T11:01:32.163Z,1011.1
2017-07-08T11:02:32.150Z,1011.08
2017-07-08T11:03:32.139Z,1011.09
2017-07-08T11:04:32.126Z,1011.15
2017-07-08T11:05:32.113Z,1011.1
2017-07-08T11:06:32.110Z,1011.08
2017-07-08T11:07:32.089Z,1011.08
2017-07-08T11:08:32.130Z,1011.09
2017-07-08T11:09:32.112Z,1011.04
2017-07-08T11:10:32.051Z,1011.05
2017-07-08T11:11:32.039Z,1011.04
2017-07-08T11:12:32.025Z,1011.02
2017-07-08T11:13:32.015Z,1011.05
2017-07-08T11:14:32.007Z,1011.01
2017-07-08T11:15:31.990Z,1011.01
2017-07-08T11:16:31.973Z,1011.03
2017-07-08T11:17:31.960Z,1010.98
2017-07-08T11:18:31.947Z,1011
2017-07-08T11:19:31.934Z,1011.02
2017-07-08T11:20:31.924Z,1011
2017-07-08T11:21:31.908Z,1011.01
2017-07-08T11:22:31.894Z,1011.04
2017-07-08T11:23:31.931Z,1011.03
2017-07-08T11:24:31.868Z,1011.07
2017-07-08T11:25:31.855Z,1011.02
2017-07-08T11:26:31.842Z,1011.04
2017-07-08T11:27:31.826Z,1011.01
2017-07-08T11:28:31.813Z,1011.03
2017-07-08T11:29:31.800Z,1011.03
2017-07-08T11:30:31.785Z,1011.03
2017-07-08T11:31:31.774Z,1011.01
2017-07-08T11:32:31.759Z,1011
2017-07-08T11:33:31.747Z,1011.05
2017-07-08T11:34:31.738Z,1011.03
2017-07-08T11:35:31.725Z,1011.03
2017-07-08T11:36:31.708Z,1011.07
2017-07-08T11:37:31.697Z,1011.03
2017-07-08T11:38:31.679Z,1011.03
2017-07-08T11:39:31.662Z,1011.05
2017-07-08T11:40:31.651Z,1011.06
2017-07-08T11:41:31.637Z,1011.03
2017-07-08T11:42:31.619Z,1011.05
2017-07-08T11:43:31.608Z,1011.02
2017-07-08T11:44:31.593Z,1011.02
2017-07-08T11:45:31.581Z,1011.05
2017-07-08T11:46:31.564Z,1011.05
2017-07-08T11:47:31.551Z,1011.02
2017-07-08T11:48:31.539Z,1011.02
2017-07-08T11:49:31.523Z,1011.04
2017-07-08T11:50:31.561Z,1011.04
2017-07-08T11:51:31.496Z,1011.04
2017-07-08T11:52:31.481Z,1011.08
2017-07-08T11:53:31.466Z,1011.02
2017-07-08T11:54:31.455Z,1011.07
2017-07-08T11:55:31.442Z,1011.05
2017-07-08T11:56:31.428Z,1011.08
2017-07-08T11:57:31.413Z,1011.03
2017-07-08T11:58:31.400Z,1011.03
2017-07-08T11:59:31.383Z,1011.01
2017-07-08T12:00:31.372Z,1010.97
2017-07-08T12:01:31.360Z,1011.02
2017-07-08T12:02:31.343Z,1011
2017-07-08T12:03:31.333Z,1010.98
2017-07-08T12:04:31.618Z,1010.99
2017-07-08T12:05:31.305Z,1011
2017-07-08T12:06:31.290Z,1011.01
2017-07-08T12:07:31.275Z,1011
2017-07-08T12:08:31.263Z,1011.01
2017-07-08T12:09:31.255Z,1010.99